sensor_id;sensor_type;location;lat;lon;timestamp;P1;durP1;ratioP1;P2;durP2;ratioP2
1462;SDS011;725;48.410;9.934;2022-10-10T00:00:14;10.57;;;9.18;;
1462;SDS011;725;48.410;9.934;2022-10-10T00:00:46;11.23;;;9.35;;
1462;SDS011;725;48.410;9.934;2022-10-10T00:01:19;11.43;;;8.50;;
1462;SDS011;725;48.410;9.934;2022-10-10T00:01:52;10.73;;;8.05;;
1462;SDS011;725;48.410;9.934;2022-10-10T00:02:24;9.88;;;8.57;;
1462;SDS011;725;48.410;9.934;2022-10-10T00:02:55;12.48;;;8.63;;
1462;SDS011;725;48.410;9.934;2022-10-10T00:03:27;8.90;;;8.00;;
1462;SDS011;725;48.410;9.934;2022-10-10T00:03:59;10.00;;;7.80;;
1462;SDS011;725;48.410;9.934;2022-10-10T00:04:32;10.07;;;7.70;;
1462;SDS011;725;48.410;9.934;2022-10-10T00:05:04;8.25;;;7.30;;
1462;SDS011;725;48.410;9.934;2022-10-10T00:05:36;8.23;;;7.43;;
1462;SDS011;725;48.410;9.934;2022-10-10T00:06:10;9.23;;;7.18;;
1462;SDS011;725;48.410;9.934;2022-10-10T00:06:42;8.50;;;7.32;;
1462;SDS011;725;48.410;9.934;2022-10-10T00:07:14;9.15;;;6.32;;
1462;SDS011;725;48.410;9.934;2022-10-10T00:07:46;8.98;;;7.15;;
1462;SDS011;725;48.410;9.934;2022-10-10T00:08:18;7.13;;;6.43;;
1462;SDS011;725;48.410;9.934;2022-10-10T00:08:50;6.93;;;6.22;;
1462;SDS011;725;48.410;9.934;2022-10-10T00:09:22;6.80;;;6.15;;
1462;SDS011;725;48.410;9.934;2022-10-10T00:09:54;10.40;;;7.20;;
1462;SDS011;725;48.410;9.934;2022-10-10T00:10:26;9.55;;;7.35;;
1462;SDS011;725;48.410;9.934;2022-10-10T00:10:58;7.55;;;6.78;;
1462;SDS011;725;48.410;9.934;2022-10-10T00:11:30;7.63;;;6.68;;
1462;SDS011;725;48.410;9.934;2022-10-10T00:12:02;11.70;;;8.00;;
1462;SDS011;725;48.410;9.934;2022-10-10T00:12:34;8.40;;;7.50;;
1462;SDS011;725;48.410;9.934;2022-10-10T00:13:06;8.50;;;7.53;;
1462;SDS011;725;48.410;9.934;2022-10-10T00:13:38;10.27;;;7.15;;
1462;SDS011;725;48.410;9.934;2022-10-10T00:14:11;9.95;;;6.88;;
1462;SDS011;725;48.410;9.934;2022-10-10T00:14:43;8.43;;;6.63;;
1462;SDS011;725;48.410;9.934;2022-10-10T00:15:15;8.00;;;7.30;;
1462;SDS011;725;48.410;9.934;2022-10-10T00:15:47;8.65;;;6.97;;
1462;SDS011;725;48.410;9.934;2022-10-10T00:16:19;6.97;;;6.28;;
1462;SDS011;725;48.410;9.934;2022-10-10T00:16:52;7.93;;;6.00;;
1462;SDS011;725;48.410;9.934;2022-10-10T00:17:23;8.68;;;7.88;;
1462;SDS011;725;48.410;9.934;2022-10-10T00:17:55;7.20;;;6.10;;
1462;SDS011;725;48.410;9.934;2022-10-10T00:18:28;8.13;;;6.43;;
1462;SDS011;725;48.410;9.934;2022-10-10T00:19:00;7.78;;;7.07;;
1462;SDS011;725;48.410;9.934;2022-10-10T00:19:32;6.35;;;5.80;;
1462;SDS011;725;48.410;9.934;2022-10-10T00:20:05;7.20;;;6.28;;
1462;SDS011;725;48.410;9.934;2022-10-10T00:20:37;7.30;;;6.60;;
1462;SDS011;725;48.410;9.934;2022-10-10T00:21:09;6.55;;;5.85;;
1462;SDS011;725;48.410;9.934;2022-10-10T00:21:42;7.00;;;6.30;;
1462;SDS011;725;48.410;9.934;2022-10-10T00:22:14;7.80;;;6.10;;
1462;SDS011;725;48.410;9.934;2022-10-10T00:22:46;7.95;;;5.78;;
1462;SDS011;725;48.410;9.934;2022-10-10T00:23:19;9.82;;;6.80;;
1462;SDS011;725;48.410;9.934;2022-10-10T00:23:51;7.22;;;6.30;;
1462;SDS011;725;48.410;9.934;2022-10-10T00:24:23;7.13;;;6.40;;
1462;SDS011;725;48.410;9.934;2022-10-10T00:24:55;9.95;;;7.22;;
1462;SDS011;725;48.410;9.934;2022-10-10T00:25:27;8.27;;;5.70;;
1462;SDS011;725;48.410;9.934;2022-10-10T00:25:59;10.60;;;6.25;;
1462;SDS011;725;48.410;9.934;2022-10-10T00:26:38;6.18;;;5.22;;
1462;SDS011;725;48.410;9.934;2022-10-10T00:27:13;10.25;;;6.22;;
1462;SDS011;725;48.410;9.934;2022-10-10T00:27:48;9.07;;;5.95;;
1462;SDS011;725;48.410;9.934;2022-10-10T00:28:20;7.90;;;6.90;;
1462;SDS011;725;48.410;9.934;2022-10-10T00:28:52;10.27;;;6.75;;
1462;SDS011;725;48.410;9.934;2022-10-10T00:29:24;6.45;;;5.85;;
1462;SDS011;725;48.410;9.934;2022-10-10T00:29:56;6.97;;;6.28;;
1462;SDS011;725;48.410;9.934;2022-10-10T00:30:29;6.45;;;5.88;;
1462;SDS011;725;48.410;9.934;2022-10-10T00:31:01;7.75;;;6.90;;
1462;SDS011;725;48.410;9.934;2022-10-10T00:31:33;7.07;;;6.40;;
1462;SDS011;725;48.410;9.934;2022-10-10T00:32:05;7.10;;;6.50;;
1462;SDS011;725;48.410;9.934;2022-10-10T00:32:37;8.93;;;6.78;;
1462;SDS011;725;48.410;9.934;2022-10-10T00:33:09;7.43;;;6.60;;
1462;SDS011;725;48.410;9.934;2022-10-10T00:33:41;10.02;;;7.95;;
1462;SDS011;725;48.410;9.934;2022-10-10T00:34:13;7.93;;;6.45;;
1462;SDS011;725;48.410;9.934;2022-10-10T00:34:45;7.43;;;6.72;;
1462;SDS011;725;48.410;9.934;2022-10-10T00:35:17;7.65;;;6.40;;
1462;SDS011;725;48.410;9.934;2022-10-10T00:35:49;7.55;;;6.40;;
1462;SDS011;725;48.410;9.934;2022-10-10T00:36:21;6.63;;;5.97;;
1462;SDS011;725;48.410;9.934;2022-10-10T00:36:53;8.35;;;6.85;;
1462;SDS011;725;48.410;9.934;2022-10-10T00:37:25;9.10;;;7.10;;
1462;SDS011;725;48.410;9.934;2022-10-10T00:37:57;8.13;;;6.20;;
1462;SDS011;725;48.410;9.934;2022-10-10T00:38:29;8.75;;;6.15;;
1462;SDS011;725;48.410;9.934;2022-10-10T00:39:02;8.80;;;8.00;;
1462;SDS011;725;48.410;9.934;2022-10-10T00:39:34;9.20;;;8.30;;
1462;SDS011;725;48.410;9.934;2022-10-10T00:40:07;9.13;;;7.93;;
1462;SDS011;725;48.410;9.934;2022-10-10T00:40:46;9.77;;;8.88;;
1462;SDS011;725;48.410;9.934;2022-10-10T00:41:21;10.73;;;8.15;;
1462;SDS011;725;48.410;9.934;2022-10-10T00:41:54;11.68;;;9.63;;
1462;SDS011;725;48.410;9.934;2022-10-10T00:42:26;11.07;;;9.82;;
1462;SDS011;725;48.410;9.934;2022-10-10T00:42:58;13.68;;;11.75;;
1462;SDS011;725;48.410;9.934;2022-10-10T00:43:31;14.57;;;13.13;;
1462;SDS011;725;48.410;9.934;2022-10-10T00:44:05;14.52;;;13.02;;
1462;SDS011;725;48.410;9.934;2022-10-10T00:44:41;15.63;;;14.15;;
1462;SDS011;725;48.410;9.934;2022-10-10T00:46:09;17.27;;;14.10;;
1462;SDS011;725;48.410;9.934;2022-10-10T00:46:41;16.92;;;15.13;;
1462;SDS011;725;48.410;9.934;2022-10-10T00:47:13;16.02;;;14.32;;
1462;SDS011;725;48.410;9.934;2022-10-10T00:47:45;15.40;;;13.77;;
1462;SDS011;725;48.410;9.934;2022-10-10T00:48:21;16.38;;;14.68;;
1462;SDS011;725;48.410;9.934;2022-10-10T00:48:56;15.02;;;13.63;;
1462;SDS011;725;48.410;9.934;2022-10-10T00:49:28;14.80;;;13.27;;
1462;SDS011;725;48.410;9.934;2022-10-10T00:50:02;14.63;;;13.18;;
1462;SDS011;725;48.410;9.934;2022-10-10T00:50:37;10.95;;;9.85;;
1462;SDS011;725;48.410;9.934;2022-10-10T00:51:14;12.27;;;9.20;;
1462;SDS011;725;48.410;9.934;2022-10-10T00:51:50;9.18;;;7.35;;
1462;SDS011;725;48.410;9.934;2022-10-10T00:52:26;9.65;;;8.48;;
1462;SDS011;725;48.410;9.934;2022-10-10T00:52:58;8.32;;;7.63;;
1462;SDS011;725;48.410;9.934;2022-10-10T00:53:43;8.85;;;7.95;;
1462;SDS011;725;48.410;9.934;2022-10-10T00:54:23;10.35;;;8.07;;
1462;SDS011;725;48.410;9.934;2022-10-10T00:54:56;8.95;;;7.85;;
1462;SDS011;725;48.410;9.934;2022-10-10T00:55:28;9.23;;;7.88;;
1462;SDS011;725;48.410;9.934;2022-10-10T00:56:00;8.93;;;7.88;;
1462;SDS011;725;48.410;9.934;2022-10-10T00:56:39;10.93;;;7.38;;
1462;SDS011;725;48.410;9.934;2022-10-10T00:57:18;8.40;;;7.60;;
1462;SDS011;725;48.410;9.934;2022-10-10T00:57:50;8.52;;;7.72;;
1462;SDS011;725;48.410;9.934;2022-10-10T00:58:23;9.45;;;8.27;;
1462;SDS011;725;48.410;9.934;2022-10-10T00:58:55;8.45;;;7.55;;
1462;SDS011;725;48.410;9.934;2022-10-10T00:59:32;8.10;;;7.18;;
1462;SDS011;725;48.410;9.934;2022-10-10T01:00:07;7.75;;;7.05;;
1462;SDS011;725;48.410;9.934;2022-10-10T01:00:40;9.50;;;7.57;;
1462;SDS011;725;48.410;9.934;2022-10-10T01:01:11;8.23;;;7.32;;
1462;SDS011;725;48.410;9.934;2022-10-10T01:01:44;8.07;;;7.38;;
1462;SDS011;725;48.410;9.934;2022-10-10T01:02:16;7.90;;;6.95;;
1462;SDS011;725;48.410;9.934;2022-10-10T01:02:48;9.48;;;8.55;;
1462;SDS011;725;48.410;9.934;2022-10-10T01:03:20;13.48;;;7.88;;
1462;SDS011;725;48.410;9.934;2022-10-10T01:03:56;10.75;;;8.20;;
1462;SDS011;725;48.410;9.934;2022-10-10T01:04:31;9.70;;;7.50;;
1462;SDS011;725;48.410;9.934;2022-10-10T01:05:16;8.40;;;7.53;;
1462;SDS011;725;48.410;9.934;2022-10-10T01:05:48;9.57;;;7.10;;
1462;SDS011;725;48.410;9.934;2022-10-10T01:06:21;8.00;;;7.30;;
1462;SDS011;725;48.410;9.934;2022-10-10T01:06:52;8.82;;;7.65;;
1462;SDS011;725;48.410;9.934;2022-10-10T01:07:25;9.10;;;8.20;;
1462;SDS011;725;48.410;9.934;2022-10-10T01:08:00;8.73;;;7.82;;
1462;SDS011;725;48.410;9.934;2022-10-10T01:08:34;9.13;;;8.13;;
1462;SDS011;725;48.410;9.934;2022-10-10T01:09:07;9.88;;;8.88;;
1462;SDS011;725;48.410;9.934;2022-10-10T01:09:40;10.13;;;9.18;;
1462;SDS011;725;48.410;9.934;2022-10-10T01:10:14;10.30;;;8.60;;
1462;SDS011;725;48.410;9.934;2022-10-10T01:11:50;12.60;;;9.40;;
1462;SDS011;725;48.410;9.934;2022-10-10T01:16:18;12.90;;;9.77;;
1462;SDS011;725;48.410;9.934;2022-10-10T01:17:18;11.00;;;9.27;;
1462;SDS011;725;48.410;9.934;2022-10-10T01:18:13;9.80;;;8.13;;
1462;SDS011;725;48.410;9.934;2022-10-10T01:19:23;14.90;;;7.50;;
1462;SDS011;725;48.410;9.934;2022-10-10T01:21:14;9.35;;;8.45;;
1462;SDS011;725;48.410;9.934;2022-10-10T01:25:28;11.55;;;9.63;;
1462;SDS011;725;48.410;9.934;2022-10-10T01:28:02;14.75;;;12.20;;
1462;SDS011;725;48.410;9.934;2022-10-10T01:30:39;16.48;;;14.35;;
1462;SDS011;725;48.410;9.934;2022-10-10T01:31:12;15.35;;;13.07;;
1462;SDS011;725;48.410;9.934;2022-10-10T01:31:47;15.55;;;13.95;;
1462;SDS011;725;48.410;9.934;2022-10-10T01:32:27;14.40;;;13.00;;
1462;SDS011;725;48.410;9.934;2022-10-10T01:33:25;15.32;;;13.80;;
1462;SDS011;725;48.410;9.934;2022-10-10T01:34:46;17.17;;;14.68;;
1462;SDS011;725;48.410;9.934;2022-10-10T01:35:13;19.23;;;14.25;;
1462;SDS011;725;48.410;9.934;2022-10-10T01:37:19;16.95;;;14.25;;
1462;SDS011;725;48.410;9.934;2022-10-10T01:39:08;16.80;;;15.10;;
1462;SDS011;725;48.410;9.934;2022-10-10T01:39:55;17.92;;;14.75;;
1462;SDS011;725;48.410;9.934;2022-10-10T01:41:05;19.17;;;15.38;;
1462;SDS011;725;48.410;9.934;2022-10-10T01:41:53;22.35;;;15.48;;
1462;SDS011;725;48.410;9.934;2022-10-10T01:42:49;16.00;;;14.50;;
1462;SDS011;725;48.410;9.934;2022-10-10T01:43:26;17.83;;;15.35;;
1462;SDS011;725;48.410;9.934;2022-10-10T01:44:00;15.77;;;14.10;;
1462;SDS011;725;48.410;9.934;2022-10-10T01:44:32;17.75;;;15.70;;
1462;SDS011;725;48.410;9.934;2022-10-10T01:45:04;18.35;;;15.60;;
1462;SDS011;725;48.410;9.934;2022-10-10T01:45:37;19.80;;;15.70;;
1462;SDS011;725;48.410;9.934;2022-10-10T01:46:22;15.50;;;14.00;;
1462;SDS011;725;48.410;9.934;2022-10-10T01:46:54;19.13;;;15.80;;
1462;SDS011;725;48.410;9.934;2022-10-10T01:47:27;17.92;;;16.13;;
1462;SDS011;725;48.410;9.934;2022-10-10T01:48:00;21.35;;;13.90;;
1462;SDS011;725;48.410;9.934;2022-10-10T01:48:35;17.15;;;14.20;;
1462;SDS011;725;48.410;9.934;2022-10-10T01:49:08;16.27;;;14.65;;
1462;SDS011;725;48.410;9.934;2022-10-10T01:49:41;17.50;;;15.55;;
1462;SDS011;725;48.410;9.934;2022-10-10T01:50:16;17.23;;;14.73;;
1462;SDS011;725;48.410;9.934;2022-10-10T01:52:17;17.27;;;15.65;;
1462;SDS011;725;48.410;9.934;2022-10-10T01:53:15;16.52;;;14.63;;
1462;SDS011;725;48.410;9.934;2022-10-10T01:56:41;15.65;;;13.90;;
1462;SDS011;725;48.410;9.934;2022-10-10T01:57:53;14.95;;;13.55;;
1462;SDS011;725;48.410;9.934;2022-10-10T01:58:59;18.23;;;13.82;;
1462;SDS011;725;48.410;9.934;2022-10-10T02:00:44;20.33;;;14.30;;
1462;SDS011;725;48.410;9.934;2022-10-10T02:01:45;15.45;;;13.73;;
1462;SDS011;725;48.410;9.934;2022-10-10T02:02:47;15.98;;;14.20;;
1462;SDS011;725;48.410;9.934;2022-10-10T02:03:44;14.40;;;12.70;;
1462;SDS011;725;48.410;9.934;2022-10-10T02:04:40;15.60;;;13.70;;
1462;SDS011;725;48.410;9.934;2022-10-10T02:06:11;15.68;;;14.07;;
1462;SDS011;725;48.410;9.934;2022-10-10T02:06:56;15.82;;;12.88;;
1462;SDS011;725;48.410;9.934;2022-10-10T02:07:40;15.55;;;13.95;;
1462;SDS011;725;48.410;9.934;2022-10-10T02:08:22;16.45;;;14.40;;
1462;SDS011;725;48.410;9.934;2022-10-10T02:09:10;15.02;;;13.20;;
1462;SDS011;725;48.410;9.934;2022-10-10T02:09:50;17.77;;;13.75;;
1462;SDS011;725;48.410;9.934;2022-10-10T02:10:26;15.15;;;13.60;;
1462;SDS011;725;48.410;9.934;2022-10-10T02:11:03;14.07;;;12.68;;
1462;SDS011;725;48.410;9.934;2022-10-10T02:11:38;16.13;;;14.43;;
1462;SDS011;725;48.410;9.934;2022-10-10T02:12:12;14.73;;;13.15;;
1462;SDS011;725;48.410;9.934;2022-10-10T02:12:45;16.27;;;14.68;;
1462;SDS011;725;48.410;9.934;2022-10-10T02:13:19;16.60;;;14.88;;
1462;SDS011;725;48.410;9.934;2022-10-10T02:13:59;15.63;;;12.75;;
1462;SDS011;725;48.410;9.934;2022-10-10T02:14:50;17.38;;;14.35;;
1462;SDS011;725;48.410;9.934;2022-10-10T02:15:25;16.38;;;14.68;;
1462;SDS011;725;48.410;9.934;2022-10-10T02:16:05;17.75;;;14.85;;
1462;SDS011;725;48.410;9.934;2022-10-10T02:16:45;17.50;;;14.23;;
1462;SDS011;725;48.410;9.934;2022-10-10T02:17:20;14.70;;;13.20;;
1462;SDS011;725;48.410;9.934;2022-10-10T02:17:55;15.68;;;14.07;;
1462;SDS011;725;48.410;9.934;2022-10-10T02:18:30;17.20;;;15.35;;
1462;SDS011;725;48.410;9.934;2022-10-10T02:19:05;16.88;;;15.07;;
1462;SDS011;725;48.410;9.934;2022-10-10T02:19:41;16.50;;;14.20;;
1462;SDS011;725;48.410;9.934;2022-10-10T02:20:21;16.63;;;14.35;;
1462;SDS011;725;48.410;9.934;2022-10-10T02:20:57;18.77;;;15.13;;
1462;SDS011;725;48.410;9.934;2022-10-10T02:21:31;15.38;;;13.68;;
1462;SDS011;725;48.410;9.934;2022-10-10T02:22:03;15.52;;;13.93;;
1462;SDS011;725;48.410;9.934;2022-10-10T02:22:37;15.95;;;14.10;;
1462;SDS011;725;48.410;9.934;2022-10-10T02:23:11;20.35;;;14.65;;
1462;SDS011;725;48.410;9.934;2022-10-10T02:23:47;17.20;;;15.32;;
1462;SDS011;725;48.410;9.934;2022-10-10T02:24:23;21.95;;;15.45;;
1462;SDS011;725;48.410;9.934;2022-10-10T02:24:55;16.23;;;14.57;;
1462;SDS011;725;48.410;9.934;2022-10-10T02:25:28;18.05;;;15.38;;
1462;SDS011;725;48.410;9.934;2022-10-10T02:26:06;18.50;;;15.45;;
1462;SDS011;725;48.410;9.934;2022-10-10T02:26:42;16.35;;;13.23;;
1462;SDS011;725;48.410;9.934;2022-10-10T02:28:46;16.52;;;13.20;;
1462;SDS011;725;48.410;9.934;2022-10-10T02:29:28;16.23;;;14.55;;
1462;SDS011;725;48.410;9.934;2022-10-10T02:30:04;16.20;;;14.63;;
1462;SDS011;725;48.410;9.934;2022-10-10T02:30:38;17.50;;;14.93;;
1462;SDS011;725;48.410;9.934;2022-10-10T02:31:15;16.40;;;14.70;;
1462;SDS011;725;48.410;9.934;2022-10-10T02:32:03;17.25;;;14.30;;
1462;SDS011;725;48.410;9.934;2022-10-10T02:32:50;18.52;;;14.25;;
1462;SDS011;725;48.410;9.934;2022-10-10T02:33:32;21.48;;;14.90;;
1462;SDS011;725;48.410;9.934;2022-10-10T02:34:29;18.15;;;15.38;;
1462;SDS011;725;48.410;9.934;2022-10-10T02:35:09;17.27;;;15.25;;
1462;SDS011;725;48.410;9.934;2022-10-10T02:35:45;20.10;;;15.40;;
1462;SDS011;725;48.410;9.934;2022-10-10T02:36:20;17.83;;;15.98;;
1462;SDS011;725;48.410;9.934;2022-10-10T02:36:57;18.55;;;15.10;;
1462;SDS011;725;48.410;9.934;2022-10-10T02:37:32;17.45;;;15.52;;
1462;SDS011;725;48.410;9.934;2022-10-10T02:38:07;19.20;;;15.95;;
1462;SDS011;725;48.410;9.934;2022-10-10T02:38:42;17.90;;;15.43;;
1462;SDS011;725;48.410;9.934;2022-10-10T02:39:16;17.85;;;16.05;;
1462;SDS011;725;48.410;9.934;2022-10-10T02:39:53;18.17;;;15.48;;
1462;SDS011;725;48.410;9.934;2022-10-10T02:40:31;16.70;;;15.00;;
1462;SDS011;725;48.410;9.934;2022-10-10T02:41:05;17.92;;;16.02;;
1462;SDS011;725;48.410;9.934;2022-10-10T02:41:40;18.52;;;16.52;;
1462;SDS011;725;48.410;9.934;2022-10-10T02:42:15;20.50;;;16.60;;
1462;SDS011;725;48.410;9.934;2022-10-10T02:42:50;16.92;;;15.35;;
1462;SDS011;725;48.410;9.934;2022-10-10T02:43:24;17.17;;;15.40;;
1462;SDS011;725;48.410;9.934;2022-10-10T02:43:56;19.55;;;15.70;;
1462;SDS011;725;48.410;9.934;2022-10-10T02:44:28;17.27;;;15.48;;
1462;SDS011;725;48.410;9.934;2022-10-10T02:45:01;20.70;;;15.95;;
1462;SDS011;725;48.410;9.934;2022-10-10T02:45:35;26.25;;;15.68;;
1462;SDS011;725;48.410;9.934;2022-10-10T02:46:10;17.15;;;15.25;;
1462;SDS011;725;48.410;9.934;2022-10-10T02:46:43;19.90;;;15.95;;
1462;SDS011;725;48.410;9.934;2022-10-10T02:47:15;18.60;;;16.77;;
1462;SDS011;725;48.410;9.934;2022-10-10T02:47:48;16.45;;;14.95;;
1462;SDS011;725;48.410;9.934;2022-10-10T02:48:21;16.98;;;15.15;;
1462;SDS011;725;48.410;9.934;2022-10-10T02:48:53;19.63;;;16.73;;
1462;SDS011;725;48.410;9.934;2022-10-10T02:49:26;19.25;;;17.17;;
1462;SDS011;725;48.410;9.934;2022-10-10T02:50:04;17.15;;;15.32;;
1462;SDS011;725;48.410;9.934;2022-10-10T02:50:36;22.45;;;15.18;;
1462;SDS011;725;48.410;9.934;2022-10-10T02:51:08;16.75;;;15.05;;
1462;SDS011;725;48.410;9.934;2022-10-10T02:51:42;20.58;;;15.73;;
1462;SDS011;725;48.410;9.934;2022-10-10T02:52:15;17.73;;;15.10;;
1462;SDS011;725;48.410;9.934;2022-10-10T02:52:47;16.67;;;15.00;;
1462;SDS011;725;48.410;9.934;2022-10-10T02:53:19;17.35;;;15.27;;
1462;SDS011;725;48.410;9.934;2022-10-10T02:53:51;17.98;;;14.85;;
1462;SDS011;725;48.410;9.934;2022-10-10T02:54:23;16.73;;;14.88;;
1462;SDS011;725;48.410;9.934;2022-10-10T02:54:55;16.77;;;14.98;;
1462;SDS011;725;48.410;9.934;2022-10-10T02:55:27;17.80;;;15.77;;
1462;SDS011;725;48.410;9.934;2022-10-10T02:55:59;17.73;;;15.75;;
1462;SDS011;725;48.410;9.934;2022-10-10T02:56:31;18.80;;;16.90;;
1462;SDS011;725;48.410;9.934;2022-10-10T02:57:03;18.08;;;15.85;;
1462;SDS011;725;48.410;9.934;2022-10-10T02:57:35;21.30;;;15.35;;
1462;SDS011;725;48.410;9.934;2022-10-10T02:58:07;17.00;;;15.23;;
1462;SDS011;725;48.410;9.934;2022-10-10T02:58:39;17.85;;;16.08;;
1462;SDS011;725;48.410;9.934;2022-10-10T02:59:11;16.98;;;15.13;;
1462;SDS011;725;48.410;9.934;2022-10-10T02:59:43;16.42;;;14.75;;
1462;SDS011;725;48.410;9.934;2022-10-10T03:00:15;16.42;;;14.88;;
1462;SDS011;725;48.410;9.934;2022-10-10T03:00:47;20.45;;;15.98;;
1462;SDS011;725;48.410;9.934;2022-10-10T03:01:19;16.75;;;14.63;;
1462;SDS011;725;48.410;9.934;2022-10-10T03:01:51;18.85;;;16.35;;
1462;SDS011;725;48.410;9.934;2022-10-10T03:02:23;18.27;;;16.45;;
1462;SDS011;725;48.410;9.934;2022-10-10T03:02:55;17.33;;;15.52;;
1462;SDS011;725;48.410;9.934;2022-10-10T03:03:27;20.20;;;16.67;;
1462;SDS011;725;48.410;9.934;2022-10-10T03:03:59;25.13;;;15.75;;
1462;SDS011;725;48.410;9.934;2022-10-10T03:04:33;18.83;;;16.83;;
1462;SDS011;725;48.410;9.934;2022-10-10T03:05:06;17.50;;;15.80;;
1462;SDS011;725;48.410;9.934;2022-10-10T03:05:39;18.27;;;15.65;;
1462;SDS011;725;48.410;9.934;2022-10-10T03:06:11;19.88;;;16.40;;
1462;SDS011;725;48.410;9.934;2022-10-10T03:06:43;18.45;;;15.73;;
1462;SDS011;725;48.410;9.934;2022-10-10T03:07:15;18.17;;;16.33;;
1462;SDS011;725;48.410;9.934;2022-10-10T03:07:47;18.95;;;16.95;;
1462;SDS011;725;48.410;9.934;2022-10-10T03:08:19;18.15;;;15.90;;
1462;SDS011;725;48.410;9.934;2022-10-10T03:08:51;20.70;;;16.42;;
1462;SDS011;725;48.410;9.934;2022-10-10T03:09:23;18.13;;;16.10;;
1462;SDS011;725;48.410;9.934;2022-10-10T03:09:55;19.10;;;15.23;;
1462;SDS011;725;48.410;9.934;2022-10-10T03:10:27;18.60;;;16.50;;
1462;SDS011;725;48.410;9.934;2022-10-10T03:10:59;20.65;;;16.65;;
1462;SDS011;725;48.410;9.934;2022-10-10T03:11:32;21.17;;;17.60;;
1462;SDS011;725;48.410;9.934;2022-10-10T03:12:04;20.10;;;16.80;;
1462;SDS011;725;48.410;9.934;2022-10-10T03:12:36;20.02;;;18.08;;
1462;SDS011;725;48.410;9.934;2022-10-10T03:13:08;18.58;;;15.93;;
1462;SDS011;725;48.410;9.934;2022-10-10T03:13:40;20.65;;;17.05;;
1462;SDS011;725;48.410;9.934;2022-10-10T03:14:12;18.33;;;16.52;;
1462;SDS011;725;48.410;9.934;2022-10-10T03:14:44;18.05;;;16.30;;
1462;SDS011;725;48.410;9.934;2022-10-10T03:15:16;21.75;;;17.42;;
1462;SDS011;725;48.410;9.934;2022-10-10T03:15:48;17.17;;;15.38;;
1462;SDS011;725;48.410;9.934;2022-10-10T03:16:20;18.73;;;16.83;;
1462;SDS011;725;48.410;9.934;2022-10-10T03:16:52;19.05;;;17.05;;
1462;SDS011;725;48.410;9.934;2022-10-10T03:17:24;19.95;;;16.27;;
1462;SDS011;725;48.410;9.934;2022-10-10T03:17:55;18.30;;;15.85;;
1462;SDS011;725;48.410;9.934;2022-10-10T03:18:27;19.48;;;17.33;;
1462;SDS011;725;48.410;9.934;2022-10-10T03:18:59;19.42;;;16.73;;
1462;SDS011;725;48.410;9.934;2022-10-10T03:19:33;18.13;;;16.33;;
1462;SDS011;725;48.410;9.934;2022-10-10T03:20:05;18.25;;;16.33;;
1462;SDS011;725;48.410;9.934;2022-10-10T03:20:38;22.90;;;17.55;;
1462;SDS011;725;48.410;9.934;2022-10-10T03:21:10;19.38;;;17.50;;
1462;SDS011;725;48.410;9.934;2022-10-10T03:21:42;16.92;;;15.30;;
1462;SDS011;725;48.410;9.934;2022-10-10T03:22:14;17.95;;;16.05;;
1462;SDS011;725;48.410;9.934;2022-10-10T03:22:46;19.48;;;17.00;;
1462;SDS011;725;48.410;9.934;2022-10-10T03:23:18;21.23;;;17.63;;
1462;SDS011;725;48.410;9.934;2022-10-10T03:23:51;25.33;;;17.63;;
1462;SDS011;725;48.410;9.934;2022-10-10T03:24:23;20.45;;;18.25;;
1462;SDS011;725;48.410;9.934;2022-10-10T03:24:55;18.83;;;16.48;;
1462;SDS011;725;48.410;9.934;2022-10-10T03:25:27;17.40;;;15.70;;
1462;SDS011;725;48.410;9.934;2022-10-10T03:25:59;19.08;;;17.23;;
1462;SDS011;725;48.410;9.934;2022-10-10T03:26:31;17.73;;;15.82;;
1462;SDS011;725;48.410;9.934;2022-10-10T03:27:05;18.38;;;16.58;;
1462;SDS011;725;48.410;9.934;2022-10-10T03:27:37;17.73;;;15.82;;
1462;SDS011;725;48.410;9.934;2022-10-10T03:28:10;21.83;;;18.20;;
1462;SDS011;725;48.410;9.934;2022-10-10T03:28:42;18.65;;;16.90;;
1462;SDS011;725;48.410;9.934;2022-10-10T03:29:14;20.38;;;17.92;;
1462;SDS011;725;48.410;9.934;2022-10-10T03:29:46;18.73;;;16.63;;
1462;SDS011;725;48.410;9.934;2022-10-10T03:30:18;24.00;;;17.13;;
1462;SDS011;725;48.410;9.934;2022-10-10T03:30:50;21.38;;;17.85;;
1462;SDS011;725;48.410;9.934;2022-10-10T03:31:22;19.20;;;17.40;;
1462;SDS011;725;48.410;9.934;2022-10-10T03:31:54;18.45;;;16.67;;
1462;SDS011;725;48.410;9.934;2022-10-10T03:32:26;19.25;;;17.23;;
1462;SDS011;725;48.410;9.934;2022-10-10T03:32:58;20.65;;;18.52;;
1462;SDS011;725;48.410;9.934;2022-10-10T03:33:30;18.60;;;16.80;;
1462;SDS011;725;48.410;9.934;2022-10-10T03:34:02;18.17;;;16.27;;
1462;SDS011;725;48.410;9.934;2022-10-10T03:34:34;18.58;;;16.63;;
1462;SDS011;725;48.410;9.934;2022-10-10T03:35:06;20.95;;;17.02;;
1462;SDS011;725;48.410;9.934;2022-10-10T03:35:38;18.55;;;16.65;;
1462;SDS011;725;48.410;9.934;2022-10-10T03:36:10;18.38;;;16.42;;
1462;SDS011;725;48.410;9.934;2022-10-10T03:36:42;18.65;;;16.95;;
1462;SDS011;725;48.410;9.934;2022-10-10T03:37:14;18.20;;;16.40;;
1462;SDS011;725;48.410;9.934;2022-10-10T03:37:46;18.40;;;16.50;;
1462;SDS011;725;48.410;9.934;2022-10-10T03:38:18;18.02;;;15.63;;
1462;SDS011;725;48.410;9.934;2022-10-10T03:38:50;18.98;;;16.98;;
1462;SDS011;725;48.410;9.934;2022-10-10T03:39:22;19.38;;;17.38;;
1462;SDS011;725;48.410;9.934;2022-10-10T03:39:54;21.08;;;17.92;;
1462;SDS011;725;48.410;9.934;2022-10-10T03:40:26;20.15;;;18.02;;
1462;SDS011;725;48.410;9.934;2022-10-10T03:40:58;19.52;;;17.52;;
1462;SDS011;725;48.410;9.934;2022-10-10T03:41:30;19.42;;;16.25;;
1462;SDS011;725;48.410;9.934;2022-10-10T03:42:02;19.55;;;17.63;;
1462;SDS011;725;48.410;9.934;2022-10-10T03:42:34;19.33;;;17.27;;
1462;SDS011;725;48.410;9.934;2022-10-10T03:43:07;18.83;;;16.30;;
1462;SDS011;725;48.410;9.934;2022-10-10T03:43:41;22.73;;;17.65;;
1462;SDS011;725;48.410;9.934;2022-10-10T03:44:12;19.90;;;17.50;;
1462;SDS011;725;48.410;9.934;2022-10-10T03:44:44;16.63;;;15.02;;
1462;SDS011;725;48.410;9.934;2022-10-10T03:45:16;19.00;;;17.10;;
1462;SDS011;725;48.410;9.934;2022-10-10T03:45:49;19.42;;;17.38;;
1462;SDS011;725;48.410;9.934;2022-10-10T03:46:21;17.83;;;16.02;;
1462;SDS011;725;48.410;9.934;2022-10-10T03:46:53;18.58;;;16.17;;
1462;SDS011;725;48.410;9.934;2022-10-10T03:47:25;18.50;;;16.52;;
1462;SDS011;725;48.410;9.934;2022-10-10T03:47:56;19.70;;;16.67;;
1462;SDS011;725;48.410;9.934;2022-10-10T03:48:28;17.17;;;15.55;;
1462;SDS011;725;48.410;9.934;2022-10-10T03:49:00;21.38;;;16.50;;
1462;SDS011;725;48.410;9.934;2022-10-10T03:49:32;17.38;;;15.57;;
1462;SDS011;725;48.410;9.934;2022-10-10T03:50:04;19.02;;;17.13;;
1462;SDS011;725;48.410;9.934;2022-10-10T03:50:37;19.75;;;15.52;;
1462;SDS011;725;48.410;9.934;2022-10-10T03:51:09;18.30;;;16.35;;
1462;SDS011;725;48.410;9.934;2022-10-10T03:51:41;18.67;;;16.67;;
1462;SDS011;725;48.410;9.934;2022-10-10T03:52:13;19.02;;;15.77;;
1462;SDS011;725;48.410;9.934;2022-10-10T03:52:45;18.27;;;16.38;;
1462;SDS011;725;48.410;9.934;2022-10-10T03:53:17;19.05;;;16.27;;
1462;SDS011;725;48.410;9.934;2022-10-10T03:53:49;16.75;;;15.15;;
1462;SDS011;725;48.410;9.934;2022-10-10T03:54:20;16.52;;;15.00;;
1462;SDS011;725;48.410;9.934;2022-10-10T03:54:52;17.25;;;15.07;;
1462;SDS011;725;48.410;9.934;2022-10-10T03:55:24;20.83;;;15.35;;
1462;SDS011;725;48.410;9.934;2022-10-10T03:55:56;17.77;;;15.13;;
1462;SDS011;725;48.410;9.934;2022-10-10T03:56:28;18.23;;;15.80;;
1462;SDS011;725;48.410;9.934;2022-10-10T03:57:00;18.75;;;15.63;;
1462;SDS011;725;48.410;9.934;2022-10-10T03:57:32;18.50;;;16.77;;
1462;SDS011;725;48.410;9.934;2022-10-10T03:58:04;17.80;;;15.63;;
1462;SDS011;725;48.410;9.934;2022-10-10T03:58:36;17.40;;;15.40;;
1462;SDS011;725;48.410;9.934;2022-10-10T03:59:08;25.20;;;16.48;;
1462;SDS011;725;48.410;9.934;2022-10-10T03:59:40;17.63;;;15.65;;
1462;SDS011;725;48.410;9.934;2022-10-10T04:00:12;17.60;;;15.80;;